Time;durP1;ratioP1;P1;durP2;ratioP2;P2;SDS_P1;SDS_P2;PMS_P1;PMS_P2;Temp;Humidity;BMP_temperature;BMP_pressure;BME280_temperature;BME280_humidity;BME280_pressure;Samples;Min_cycle;Max_cycle;Signal;HPM_P1;HPM_P2
2022/03/13 00:01:55;;;;;;;20.73;10.25;;;1.50;99.90;;;;;;5094537;28;20036;-73
2022/03/13 00:04:20;;;;;;;23.33;10.50;;;1.40;99.90;;;;;;5094624;28;20069;-73
2022/03/13 00:06:46;;;;;;;20.60;10.35;;;1.50;99.90;;;;;;5094398;28;20472;-73
2022/03/13 00:09:14;;;;;;;22.70;12.15;;;1.50;99.90;;;;;;5094117;28;20035;-73
2022/03/13 00:11:40;;;;;;;25.13;11.05;;;1.50;99.90;;;;;;5094059;28;20050;-73
2022/03/13 00:14:06;;;;;;;21.52;11.30;;;1.40;99.90;;;;;;5094180;28;20480;-73
2022/03/13 00:16:33;;;;;;;21.63;9.90;;;1.30;99.90;;;;;;5094198;28;20016;-73
2022/03/13 00:18:59;;;;;;;22.20;11.40;;;1.30;99.90;;;;;;5094223;28;20036;-73
2022/03/13 00:21:24;;;;;;;24.65;11.13;;;1.20;99.90;;;;;;5095131;28;20017;-73
2022/03/13 00:23:50;;;;;;;18.48;9.82;;;1.20;99.90;;;;;;5095273;28;20016;-73
2022/03/13 00:26:17;;;;;;;18.52;10.68;;;1.10;99.90;;;;;;5094314;28;20517;-73
2022/03/13 00:28:45;;;;;;;20.40;9.95;;;1.00;99.90;;;;;;5094777;28;20099;-73
2022/03/13 00:31:11;;;;;;;25.23;11.27;;;1.00;99.90;;;;;;5098195;28;20031;-73
2022/03/13 00:33:37;;;;;;;20.48;10.35;;;0.90;99.90;;;;;;5098446;28;20081;-73
2022/03/13 00:36:03;;;;;;;20.45;10.10;;;0.80;99.90;;;;;;5096782;28;20024;-74
2022/03/13 00:38:29;;;;;;;20.80;10.10;;;0.90;99.90;;;;;;5097949;28;20027;-73
2022/03/13 00:40:56;;;;;;;19.45;9.32;;;1.00;99.90;;;;;;5096657;28;20028;-72
2022/03/13 00:43:23;;;;;;;23.30;10.85;;;1.10;99.90;;;;;;5097897;28;20028;-73
2022/03/13 00:45:49;;;;;;;20.38;9.93;;;1.10;99.90;;;;;;5097898;28;20096;-73
2022/03/13 00:48:16;;;;;;;25.02;10.05;;;1.20;99.90;;;;;;5097852;28;20164;-73
2022/03/13 00:50:43;;;;;;;35.78;9.85;;;1.30;99.90;;;;;;5097823;28;20098;-73
2022/03/13 00:53:08;;;;;;;16.48;8.82;;;1.40;99.90;;;;;;5098004;28;20024;-73
2022/03/13 00:55:34;;;;;;;18.52;9.77;;;1.40;99.90;;;;;;5097757;28;20031;-73
2022/03/13 00:58:00;;;;;;;21.88;10.20;;;1.30;99.90;;;;;;5098177;28;20024;-73
2022/03/13 01:00:26;;;;;;;20.00;11.23;;;1.10;99.90;;;;;;5097496;28;20387;-73
2022/03/13 01:02:52;;;;;;;24.60;10.25;;;1.10;99.90;;;;;;5098062;28;20017;-73
2022/03/13 01:05:26;;;;;;;22.05;10.45;;;0.80;99.90;;;;;;5097796;28;20486;-73
2022/03/13 01:07:53;;;;;;;17.40;9.88;;;0.60;99.90;;;;;;5097622;28;20016;-73
2022/03/13 01:10:19;;;;;;;17.52;8.15;;;0.50;99.90;;;;;;5097650;28;20028;-73
2022/03/13 01:12:45;;;;;;;23.38;10.93;;;0.20;99.90;;;;;;5097338;28;20073;-73
2022/03/13 01:15:11;;;;;;;25.38;11.80;;;0.00;99.90;;;;;;5097646;28;20190;-73
2022/03/13 01:17:37;;;;;;;19.88;10.35;;;-0.10;99.90;;;;;;5097153;28;20032;-73
2022/03/13 01:20:05;;;;;;;22.23;10.40;;;-0.10;99.90;;;;;;5097204;28;20035;-73
2022/03/13 01:22:31;;;;;;;25.98;11.45;;;-0.10;99.90;;;;;;5097209;28;20024;-73
2022/03/13 01:24:56;;;;;;;21.13;10.63;;;-0.20;99.90;;;;;;5097460;28;20043;-73
2022/03/13 01:27:22;;;;;;;22.67;10.05;;;-0.20;99.90;;;;;;5097264;28;20051;-73
2022/03/13 01:29:48;;;;;;;20.45;9.73;;;-0.20;99.90;;;;;;5096193;28;20021;-73
2022/03/13 01:32:15;;;;;;;22.90;11.80;;;-0.10;99.90;;;;;;5096998;28;20024;-73
2022/03/13 01:34:42;;;;;;;23.80;9.80;;;0.00;99.90;;;;;;5097288;28;20087;-73
2022/03/13 01:37:14;;;;;;;21.27;10.40;;;0.10;99.90;;;;;;5097134;28;20101;-73
2022/03/13 01:39:40;;;;;;;22.75;11.35;;;0.10;99.90;;;;;;5097076;28;20020;-73
2022/03/13 01:42:07;;;;;;;22.88;10.57;;;0.10;99.90;;;;;;5095596;28;20028;-73
2022/03/13 01:44:32;;;;;;;19.52;9.35;;;0.00;99.90;;;;;;5096780;28;20380;-73
2022/03/13 01:47:00;;;;;;;19.08;8.73;;;0.10;99.90;;;;;;5096717;28;20107;-73
2022/03/13 01:49:25;;;;;;;19.52;10.38;;;0.40;99.90;;;;;;5096579;28;20023;-73
2022/03/13 01:51:51;;;;;;;23.98;10.35;;;0.50;99.90;;;;;;5096592;28;20024;-73
2022/03/13 01:54:17;;;;;;;22.63;10.38;;;0.60;99.90;;;;;;5096579;28;20028;-73
2022/03/13 01:56:43;;;;;;;19.88;10.27;;;0.60;99.90;;;;;;5096504;28;20028;-73
2022/03/13 01:59:11;;;;;;;25.80;10.40;;;0.70;99.90;;;;;;5097303;28;20368;-72
2022/03/13 02:01:37;;;;;;;21.00;10.85;;;0.70;99.90;;;;;;5096332;28;20036;-73
2022/03/13 02:04:03;;;;;;;20.92;9.88;;;0.70;99.90;;;;;;5096401;28;20476;-73
2022/03/13 02:06:29;;;;;;;27.40;11.20;;;0.70;99.90;;;;;;5096361;28;20028;-73
2022/03/13 02:08:55;;;;;;;27.35;11.00;;;0.90;99.90;;;;;;5096315;28;20059;-73
2022/03/13 02:11:24;;;;;;;18.27;10.13;;;0.90;99.90;;;;;;5096650;28;20024;-73
2022/03/13 02:13:52;;;;;;;33.97;10.07;;;1.00;99.90;;;;;;5096193;28;20031;-73
2022/03/13 02:16:19;;;;;;;21.83;10.48;;;1.20;99.90;;;;;;5096225;28;20034;-73
2022/03/13 02:18:48;;;;;;;18.40;9.73;;;1.30;99.90;;;;;;5094583;28;20036;-73
2022/03/13 02:21:19;;;;;;;25.27;10.25;;;1.40;99.90;;;;;;5095978;28;20038;-73
2022/03/13 02:23:44;;;;;;;24.33;10.13;;;1.50;99.90;;;;;;5096123;28;20020;-73
2022/03/13 02:26:10;;;;;;;20.25;9.93;;;1.50;99.90;;;;;;5095960;28;20024;-73
2022/03/13 02:28:50;;;;;;;17.88;9.50;;;1.50;99.90;;;;;;5095865;28;20492;-73
2022/03/13 02:31:19;;;;;;;25.70;10.40;;;1.50;99.90;;;;;;5096290;28;20388;-73
2022/03/13 02:33:45;;;;;;;19.58;9.35;;;1.50;99.90;;;;;;5096104;28;20032;-73
2022/03/13 02:36:32;;;;;;;18.92;9.15;;;1.50;99.90;;;;;;5096264;28;20026;-73
2022/03/13 02:38:59;;;;;;;21.25;9.60;;;1.40;99.90;;;;;;5095713;28;20099;-73
2022/03/13 02:41:27;;;;;;;20.33;9.23;;;1.40;99.90;;;;;;5094399;28;20020;-73
2022/03/13 02:43:53;;;;;;;19.13;9.65;;;1.40;99.90;;;;;;5096486;28;20081;-73
2022/03/13 02:46:24;;;;;;;24.23;11.00;;;1.40;99.90;;;;;;5096477;28;20020;-73
2022/03/13 02:48:51;;;;;;;21.98;9.75;;;1.40;99.90;;;;;;5096622;28;20054;-73
2022/03/13 02:51:17;;;;;;;23.67;11.07;;;1.30;99.90;;;;;;5095309;28;20024;-72
2022/03/13 02:53:44;;;;;;;21.38;9.98;;;1.20;99.90;;;;;;5095924;28;20028;-73
2022/03/13 02:56:10;;;;;;;20.10;10.65;;;1.20;99.90;;;;;;5095455;28;20024;-73
2022/03/13 02:58:35;;;;;;;19.17;10.43;;;1.20;99.90;;;;;;5095247;28;20028;-73
2022/03/13 03:01:01;;;;;;;17.80;9.80;;;1.20;99.90;;;;;;5095181;28;20024;-73
2022/03/13 03:03:27;;;;;;;20.90;9.60;;;1.20;99.90;;;;;;5095397;28;20024;-73
2022/03/13 03:05:53;;;;;;;23.75;10.60;;;1.20;99.90;;;;;;5095237;28;20020;-73
2022/03/13 03:08:21;;;;;;;24.23;10.07;;;1.00;99.90;;;;;;5095619;28;20471;-73
2022/03/13 03:10:47;;;;;;;17.92;8.38;;;0.90;99.90;;;;;;5095116;28;20110;-73
2022/03/13 03:13:15;;;;;;;19.63;10.20;;;0.60;99.90;;;;;;5095331;28;20071;-73
2022/03/13 03:15:41;;;;;;;18.35;9.85;;;0.40;99.90;;;;;;5093808;28;20031;-73
2022/03/13 03:18:09;;;;;;;21.35;9.68;;;0.30;99.90;;;;;;5095145;28;20407;-71
2022/03/13 03:20:35;;;;;;;20.45;10.07;;;0.10;99.90;;;;;;5095123;28;20030;-73
2022/03/13 03:23:01;;;;;;;17.58;9.18;;;0.00;99.90;;;;;;5095367;28;20070;-73
2022/03/13 03:25:27;;;;;;;23.67;10.07;;;-0.10;99.90;;;;;;5095153;28;20020;-73
2022/03/13 03:27:55;;;;;;;21.52;10.50;;;-0.20;99.90;;;;;;5094924;28;20024;-74
2022/03/13 03:30:23;;;;;;;24.45;10.10;;;-0.30;99.90;;;;;;5094744;28;20032;-74
2022/03/13 03:32:50;;;;;;;20.02;9.95;;;-0.30;99.90;;;;;;5094737;28;20479;-74
2022/03/13 03:35:19;;;;;;;18.08;9.73;;;-0.30;99.90;;;;;;5094621;28;20043;-74
2022/03/13 03:37:46;;;;;;;18.30;9.73;;;-0.40;99.90;;;;;;5094658;28;20020;-74
2022/03/13 03:40:12;;;;;;;22.33;11.68;;;-0.30;99.90;;;;;;5094512;28;20028;-74
2022/03/13 03:42:38;;;;;;;19.80;9.98;;;-0.40;99.90;;;;;;5094651;28;20020;-75
2022/03/13 03:45:04;;;;;;;16.30;9.60;;;-0.40;99.90;;;;;;5094677;28;20077;-74
2022/03/13 03:47:30;;;;;;;19.55;9.68;;;-0.30;99.90;;;;;;5094380;28;20047;-74
2022/03/13 03:49:55;;;;;;;27.08;10.48;;;-0.30;99.90;;;;;;5094463;28;20066;-74
2022/03/13 03:52:21;;;;;;;20.52;9.88;;;-0.20;99.90;;;;;;5094426;28;20051;-74
2022/03/13 03:54:46;;;;;;;18.30;8.85;;;-0.30;99.90;;;;;;5094380;28;20468;-74
2022/03/13 03:57:12;;;;;;;20.73;10.60;;;-0.40;99.90;;;;;;5094849;28;20031;-74
2022/03/13 03:59:38;;;;;;;25.08;10.05;;;-0.50;99.90;;;;;;5094291;28;20357;-74
2022/03/13 04:02:03;;;;;;;23.13;11.43;;;-0.50;99.90;;;;;;5094541;28;20093;-74
2022/03/13 04:04:29;;;;;;;25.38;11.23;;;-0.60;99.90;;;;;;5094352;28;20017;-74
2022/03/13 04:06:54;;;;;;;21.92;10.52;;;-0.60;99.90;;;;;;5094584;28;20028;-74
2022/03/13 04:09:20;;;;;;;22.33;10.38;;;-0.70;99.90;;;;;;5094110;28;20024;-74
2022/03/13 04:11:47;;;;;;;20.83;10.32;;;-0.80;99.90;;;;;;5094313;28;20089;-74
2022/03/13 04:14:14;;;;;;;20.80;10.90;;;-0.80;99.90;;;;;;5094305;28;20028;-73
2022/03/13 04:16:41;;;;;;;22.70;11.15;;;-0.80;99.90;;;;;;5094165;28;20042;-74
2022/03/13 04:19:09;;;;;;;23.70;11.00;;;-1.00;99.90;;;;;;5093993;28;20039;-73
2022/03/13 04:21:34;;;;;;;26.20;10.98;;;-1.00;99.90;;;;;;5093969;28;20016;-74
2022/03/13 04:24:00;;;;;;;21.67;10.77;;;-1.10;99.90;;;;;;5094086;28;20024;-74
2022/03/13 04:26:26;;;;;;;22.13;11.23;;;-1.20;99.90;;;;;;5094114;28;20522;-74
2022/03/13 04:28:51;;;;;;;20.98;10.98;;;-1.20;99.90;;;;;;5094240;28;20345;-74
2022/03/13 04:31:18;;;;;;;23.52;10.82;;;-1.30;99.90;;;;;;5092790;28;20024;-74
2022/03/13 04:33:44;;;;;;;34.33;11.60;;;-1.30;99.90;;;;;;5094044;28;20035;-74
2022/03/13 04:36:14;;;;;;;31.10;12.45;;;-1.20;99.90;;;;;;5094233;28;20077;-74
2022/03/13 04:38:41;;;;;;;22.83;10.90;;;-1.20;99.90;;;;;;5093872;28;20031;-74
2022/03/13 04:41:06;;;;;;;22.23;11.70;;;-1.20;99.90;;;;;;5093944;28;20028;-74
2022/03/13 04:43:32;;;;;;;24.77;12.10;;;-1.20;99.90;;;;;;5094019;28;20026;-74
2022/03/13 04:45:57;;;;;;;27.15;13.68;;;-1.20;99.90;;;;;;5093889;28;20020;-74
2022/03/13 04:48:23;;;;;;;25.10;12.52;;;-1.30;99.90;;;;;;5093929;28;20020;-74
2022/03/13 04:50:49;;;;;;;29.85;12.70;;;-1.30;99.90;;;;;;5093830;28;20020;-74
2022/03/13 04:53:15;;;;;;;29.45;13.20;;;-1.40;99.90;;;;;;5094406;28;20027;-74
2022/03/13 04:55:41;;;;;;;29.17;12.57;;;-1.40;99.90;;;;;;5092570;28;20476;-74
2022/03/13 04:58:08;;;;;;;32.13;14.05;;;-1.30;99.90;;;;;;5093655;28;20028;-74
2022/03/13 05:00:35;;;;;;;29.35;12.77;;;-1.40;99.90;;;;;;5093887;28;20056;-74
2022/03/13 05:03:01;;;;;;;25.65;12.02;;;-1.40;99.90;;;;;;5094062;28;20025;-74
2022/03/13 05:05:26;;;;;;;27.35;12.88;;;-1.40;99.90;;;;;;5093615;28;20027;-74
2022/03/13 05:07:52;;;;;;;22.88;12.07;;;-1.50;99.90;;;;;;5095417;28;20045;-74
2022/03/13 05:10:20;;;;;;;25.52;12.80;;;-1.50;99.90;;;;;;5095412;28;20062;-74
2022/03/13 05:12:47;;;;;;;32.78;13.25;;;-1.50;99.90;;;;;;5094498;28;20031;-74
2022/03/13 05:15:13;;;;;;;38.38;13.55;;;-1.60;99.90;;;;;;5095125;28;20073;-74
2022/03/13 05:17:39;;;;;;;29.20;13.07;;;-1.60;99.90;;;;;;5097307;28;20486;-74
2022/03/13 05:20:05;;;;;;;31.92;14.57;;;-1.70;99.90;;;;;;5097517;28;20118;-75
2022/03/13 05:22:31;;;;;;;27.00;13.93;;;-1.60;99.90;;;;;;5097212;28;20020;-74
2022/03/13 05:24:57;;;;;;;31.60;14.05;;;-1.60;99.90;;;;;;5097140;28;20028;-74
2022/03/13 05:27:23;;;;;;;26.85;12.77;;;-1.70;99.90;;;;;;5097014;28;20028;-73
2022/03/13 05:29:48;;;;;;;40.03;15.52;;;-1.60;99.90;;;;;;5097249;28;20048;-74
2022/03/13 05:32:14;;;;;;;30.92;13.55;;;-1.60;99.90;;;;;;5097497;28;20434;-73
2022/03/13 05:34:40;;;;;;;28.83;14.20;;;-1.60;99.90;;;;;;5096975;28;20028;-74
2022/03/13 05:37:07;;;;;;;30.63;14.05;;;-1.70;99.90;;;;;;5095713;28;20119;-74
2022/03/13 05:39:33;;;;;;;30.55;14.82;;;-1.60;99.90;;;;;;5096826;28;20027;-74
2022/03/13 05:41:59;;;;;;;33.55;15.27;;;-1.60;99.90;;;;;;5096799;28;20430;-74
2022/03/13 05:44:25;;;;;;;39.45;15.90;;;-1.50;99.90;;;;;;5097216;28;20074;-74
2022/03/13 05:46:51;;;;;;;32.72;14.98;;;-1.40;99.90;;;;;;5096722;28;20016;-74
2022/03/13 05:49:17;;;;;;;30.05;14.02;;;-1.40;99.90;;;;;;5096676;28;20081;-74
2022/03/13 05:51:43;;;;;;;29.48;14.40;;;-1.30;99.90;;;;;;5096650;28;20069;-74
2022/03/13 05:54:09;;;;;;;30.60;14.85;;;-1.20;99.90;;;;;;5095357;28;20031;-74
2022/03/13 05:56:35;;;;;;;33.28;14.27;;;-1.20;99.90;;;;;;5096545;28;20020;-74
2022/03/13 05:59:00;;;;;;;32.92;14.65;;;-1.10;99.90;;;;;;5096475;28;20392;-74
2022/03/13 06:01:26;;;;;;;32.78;13.20;;;-1.00;99.90;;;;;;5096852;28;20173;-74
2022/03/13 06:03:52;;;;;;;29.45;14.05;;;-0.90;99.90;;;;;;5096928;28;20504;-74
2022/03/13 06:06:18;;;;;;;32.92;14.88;;;-0.80;99.90;;;;;;5096597;28;20020;-74
2022/03/13 06:08:44;;;;;;;29.17;13.40;;;-0.70;99.90;;;;;;5096231;28;20495;-74
2022/03/13 06:11:09;;;;;;;29.05;13.65;;;-0.70;99.90;;;;;;5096274;28;20019;-74
2022/03/13 06:13:35;;;;;;;34.90;15.73;;;-0.70;99.90;;;;;;5096258;28;20028;-74
2022/03/13 06:16:01;;;;;;;30.42;14.10;;;-0.70;99.90;;;;;;5096195;28;20419;-74
2022/03/13 06:18:27;;;;;;;30.77;13.30;;;-0.60;99.90;;;;;;5096177;28;20032;-74
2022/03/13 06:20:53;;;;;;;41.10;13.88;;;-0.50;99.90;;;;;;5096003;28;20032;-74
2022/03/13 06:23:19;;;;;;;31.67;13.75;;;-0.40;99.90;;;;;;5096020;28;20070;-74
2022/03/13 06:25:45;;;;;;;36.03;15.15;;;-0.40;99.90;;;;;;5095660;28;20036;-74
2022/03/13 06:28:12;;;;;;;37.42;14.50;;;-0.20;99.90;;;;;;5095215;28;20039;-74
2022/03/13 06:30:38;;;;;;;27.48;13.63;;;-0.10;99.90;;;;;;5096001;28;20475;-74
2022/03/13 06:33:04;;;;;;;29.30;13.70;;;-0.10;99.90;;;;;;5096119;28;20046;-73
2022/03/13 06:35:30;;;;;;;32.97;14.60;;;0.00;99.90;;;;;;5095784;28;20406;-74
2022/03/13 06:37:56;;;;;;;27.83;12.85;;;0.00;99.90;;;;;;5095723;28;20035;-74
2022/03/13 06:40:24;;;;;;;32.13;14.15;;;0.10;99.90;;;;;;5095649;28;20027;-74
2022/03/13 06:42:52;;;;;;;49.08;16.88;;;0.20;99.90;;;;;;5095685;28;20012;-74
2022/03/13 06:45:19;;;;;;;31.80;14.30;;;0.40;99.90;;;;;;5096023;28;20024;-74
2022/03/13 06:47:46;;;;;;;39.30;13.55;;;0.50;99.90;;;;;;5094389;28;20024;-74
2022/03/13 06:50:16;;;;;;;31.30;12.27;;;0.70;99.90;;;;;;5095543;28;20070;-74
2022/03/13 06:52:42;;;;;;;27.80;12.93;;;0.80;99.90;;;;;;5095765;28;20050;-74
2022/03/13 06:55:09;;;;;;;25.55;12.55;;;0.90;99.90;;;;;;5095464;28;20052;-74
2022/03/13 06:57:34;;;;;;;27.52;13.13;;;1.00;99.90;;;;;;5095638;28;20491;-73
2022/03/13 07:00:00;;;;;;;39.63;14.73;;;1.20;99.90;;;;;;5095405;28;20056;-74
2022/03/13 07:02:26;;;;;;;25.63;13.07;;;1.40;99.90;;;;;;5095204;28;20020;-73
2022/03/13 07:04:52;;;;;;;28.77;12.63;;;1.50;99.90;;;;;;5095221;28;20102;-74
2022/03/13 07:07:17;;;;;;;28.83;13.02;;;1.70;99.90;;;;;;5095140;28;20045;-73
2022/03/13 07:09:43;;;;;;;29.65;12.88;;;1.80;99.90;;;;;;5095102;28;20115;-73
2022/03/13 07:12:11;;;;;;;28.92;13.45;;;2.00;99.90;;;;;;5095664;28;20047;-73
2022/03/13 07:14:44;;;;;;;28.50;11.90;;;2.10;99.90;;;;;;5095172;28;20023;-74
2022/03/13 07:17:09;;;;;;;31.73;13.05;;;2.20;99.90;;;;;;5095000;28;20070;-74
2022/03/13 07:19:35;;;;;;;32.15;12.55;;;2.40;99.90;;;;;;5094781;28;20040;-73
2022/03/13 07:22:01;;;;;;;26.88;12.25;;;2.60;99.90;;;;;;5094920;28;20024;-74
2022/03/13 07:24:26;;;;;;;26.60;13.32;;;2.70;99.90;;;;;;5094873;28;20376;-74
2022/03/13 07:26:52;;;;;;;29.77;13.45;;;2.90;99.90;;;;;;5094950;28;20052;-74
2022/03/13 07:29:17;;;;;;;26.48;11.90;;;3.10;99.90;;;;;;5095521;28;20420;-74
2022/03/13 07:31:43;;;;;;;30.55;12.40;;;3.20;99.90;;;;;;5096468;28;20420;-74
2022/03/13 07:34:08;;;;;;;31.02;12.27;;;3.40;99.90;;;;;;5095969;28;20103;-74
2022/03/13 07:36:34;;;;;;;25.27;12.60;;;3.50;99.90;;;;;;5094747;28;20032;-74
2022/03/13 07:39:00;;;;;;;28.67;12.52;;;3.60;99.90;;;;;;5094291;28;20028;-74
2022/03/13 07:41:26;;;;;;;28.25;12.82;;;3.70;99.90;;;;;;5094576;28;20031;-74
2022/03/13 07:43:51;;;;;;;24.80;12.13;;;3.90;99.90;;;;;;5094774;28;20380;-74
2022/03/13 07:46:17;;;;;;;22.73;10.50;;;4.00;99.90;;;;;;5094586;28;20088;-74
2022/03/13 07:48:44;;;;;;;24.08;12.20;;;4.10;99.90;;;;;;5094551;28;20388;-74
2022/03/13 07:51:11;;;;;;;27.00;11.35;;;4.30;99.90;;;;;;5094484;28;20533;-74
2022/03/13 07:53:36;;;;;;;29.60;12.02;;;4.40;99.90;;;;;;5094550;28;20039;-74
2022/03/13 07:56:02;;;;;;;24.38;12.07;;;4.50;99.90;;;;;;5094407;28;20536;-74
2022/03/13 07:58:28;;;;;;;31.52;12.32;;;4.70;99.90;;;;;;5094442;28;20060;-73
2022/03/13 08:00:54;;;;;;;23.63;10.95;;;4.80;99.90;;;;;;5094376;28;20024;-74
2022/03/13 08:03:28;;;;;;;23.60;11.15;;;5.00;99.90;;;;;;5094469;28;20361;-74
2022/03/13 08:05:54;;;;;;;26.20;11.35;;;5.10;99.90;;;;;;5094549;28;20030;-74
2022/03/13 08:08:20;;;;;;;26.50;11.52;;;5.20;99.90;;;;;;5094196;28;20028;-74
2022/03/13 08:10:45;;;;;;;22.05;10.73;;;5.40;99.90;;;;;;5094137;28;20036;-73
2022/03/13 08:13:11;;;;;;;20.88;11.15;;;5.60;99.90;;;;;;5094329;28;20025;-74
2022/03/13 08:15:38;;;;;;;27.10;12.63;;;5.70;99.90;;;;;;5094660;28;20495;-74
2022/03/13 08:18:04;;;;;;;24.33;11.85;;;5.90;99.90;;;;;;5094188;28;20064;-74
2022/03/13 08:20:29;;;;;;;25.75;10.20;;;6.10;99.90;;;;;;5094144;28;20020;-74
2022/03/13 08:22:55;;;;;;;24.73;11.35;;;6.30;99.90;;;;;;5094659;28;20035;-74
2022/03/13 08:25:21;;;;;;;22.85;10.63;;;6.50;99.90;;;;;;5094129;28;20095;-74
2022/03/13 08:27:47;;;;;;;29.50;10.70;;;6.70;99.90;;;;;;5094065;28;20055;-74
2022/03/13 08:30:13;;;;;;;20.65;10.63;;;6.80;99.90;;;;;;5094383;28;20016;-74
2022/03/13 08:32:39;;;;;;;26.15;10.70;;;7.00;99.90;;;;;;5094290;28;20082;-74
2022/03/13 08:35:06;;;;;;;21.70;9.93;;;7.00;99.50;;;;;;5093940;28;20397;-74
2022/03/13 08:37:32;;;;;;;23.08;10.90;;;7.10;98.20;;;;;;5093917;28;20020;-75
2022/03/13 08:39:58;;;;;;;19.80;10.30;;;7.00;95.80;;;;;;5094265;28;20024;-75
2022/03/13 08:42:23;;;;;;;18.98;9.85;;;7.10;97.30;;;;;;5093959;28;20103;-74
2022/03/13 08:44:49;;;;;;;21.75;10.77;;;7.30;97.40;;;;;;5093920;28;20027;-74
2022/03/13 08:47:14;;;;;;;19.48;10.32;;;7.50;98.10;;;;;;5094127;28;20020;-74
2022/03/13 08:49:40;;;;;;;19.15;10.05;;;7.70;96.60;;;;;;5094379;28;20515;-74
2022/03/13 08:52:06;;;;;;;22.52;10.40;;;7.90;96.10;;;;;;5097863;28;20491;-75
2022/03/13 08:54:32;;;;;;;24.25;10.10;;;8.00;95.30;;;;;;5098332;28;20047;-72
2022/03/13 08:56:58;;;;;;;20.25;10.57;;;8.20;95.00;;;;;;5097663;28;20475;-72
2022/03/13 08:59:24;;;;;;;22.65;9.90;;;8.40;95.50;;;;;;5097975;28;20051;-72
2022/03/13 09:01:50;;;;;;;23.95;10.10;;;8.60;94.50;;;;;;5097585;28;20044;-71
2022/03/13 09:04:15;;;;;;;19.25;10.10;;;8.60;94.70;;;;;;5097545;28;20093;-71
2022/03/13 09:06:43;;;;;;;20.50;9.57;;;8.80;93.30;;;;;;5097729;28;20020;-71
2022/03/13 09:09:09;;;;;;;23.17;10.18;;;8.90;92.60;;;;;;5097680;28;20022;-71
2022/03/13 09:11:36;;;;;;;24.42;10.02;;;8.90;92.30;;;;;;5097708;28;20023;-71
2022/03/13 09:14:01;;;;;;;27.08;11.68;;;9.10;93.70;;;;;;5098065;28;20028;-72
2022/03/13 09:16:27;;;;;;;41.17;10.20;;;9.30;93.30;;;;;;5097294;28;20024;-73
2022/03/13 09:18:53;;;;;;;26.60;10.30;;;9.50;93.10;;;;;;5095756;28;20132;-72
2022/03/13 09:21:19;;;;;;;20.98;10.55;;;9.70;92.10;;;;;;5097694;28;20027;-73
2022/03/13 09:23:44;;;;;;;21.35;10.27;;;9.90;91.90;;;;;;5097736;28;20020;-72
2022/03/13 09:26:10;;;;;;;23.17;9.18;;;10.00;91.60;;;;;;5095935;28;20043;-71
2022/03/13 09:28:35;;;;;;;23.10;9.85;;;10.00;90.60;;;;;;5097097;28;20063;-71
2022/03/13 09:31:02;;;;;;;18.70;10.02;;;9.90;89.60;;;;;;5097342;28;20058;-71
2022/03/13 09:33:27;;;;;;;19.25;10.43;;;10.20;91.60;;;;;;5096984;28;20035;-71
2022/03/13 09:35:53;;;;;;;19.40;8.82;;;10.30;91.80;;;;;;5097516;28;20032;-71
2022/03/13 09:38:19;;;;;;;18.02;9.75;;;10.40;89.90;;;;;;5095585;28;20028;-71
2022/03/13 09:40:45;;;;;;;18.20;9.45;;;10.20;86.80;;;;;;5096802;28;20034;-71
2022/03/13 09:43:10;;;;;;;18.98;9.68;;;10.20;85.00;;;;;;5097083;28;20078;-71
2022/03/13 09:45:36;;;;;;;22.20;11.00;;;10.30;88.40;;;;;;5096822;28;20020;-71
2022/03/13 09:48:03;;;;;;;17.65;10.05;;;10.60;88.60;;;;;;5095426;28;20074;-72
2022/03/13 09:50:29;;;;;;;17.73;9.98;;;10.80;86.90;;;;;;5096923;28;20107;-73
2022/03/13 09:52:55;;;;;;;19.70;10.00;;;10.80;82.20;;;;;;5097706;28;20058;-71
2022/03/13 09:55:20;;;;;;;19.80;8.77;;;11.10;85.50;;;;;;5097474;28;20032;-71
2022/03/13 09:57:48;;;;;;;19.15;8.80;;;11.20;84.50;;;;;;5096447;28;20102;-72
2022/03/13 10:00:16;;;;;;;19.95;9.32;;;11.40;83.20;;;;;;5096449;28;20024;-72
2022/03/13 10:02:43;;;;;;;26.13;10.30;;;11.50;80.40;;;;;;5096449;28;20016;-72
2022/03/13 10:05:11;;;;;;;17.83;9.77;;;11.50;78.50;;;;;;5096448;28;20024;-72
2022/03/13 10:07:50;;;;;;;21.05;9.10;;;11.70;79.50;;;;;;5096566;28;20035;-72
2022/03/13 10:10:16;;;;;;;23.75;9.43;;;11.70;78.60;;;;;;5096465;28;20047;-72
2022/03/13 10:12:41;;;;;;;15.77;9.10;;;11.90;76.00;;;;;;5096586;28;20066;-72
2022/03/13 10:15:08;;;;;;;16.63;8.70;;;11.90;76.50;;;;;;5096271;28;20048;-72
2022/03/13 10:17:36;;;;;;;23.40;10.27;;;12.10;78.70;;;;;;5096258;28;20518;-72
2022/03/13 10:20:16;;;;;;;20.95;8.68;;;12.20;75.90;;;;;;5096250;28;20024;-72
2022/03/13 10:22:45;;;;;;;16.73;8.43;;;12.10;73.80;;;;;;5096451;28;20024;-72
2022/03/13 10:25:13;;;;;;;22.17;9.02;;;12.30;74.00;;;;;;5094795;28;20020;-72
2022/03/13 10:27:40;;;;;;;16.23;8.80;;;12.40;75.60;;;;;;5096163;28;20016;-72
2022/03/13 10:30:09;;;;;;;14.57;8.75;;;12.50;69.90;;;;;;5096165;28;20585;-71
2022/03/13 10:32:38;;;;;;;20.70;9.02;;;12.60;73.00;;;;;;5095949;28;20063;-72
2022/03/13 10:35:04;;;;;;;15.90;9.38;;;12.80;73.30;;;;;;5095713;28;20028;-72
2022/03/13 10:37:39;;;;;;;18.38;7.85;;;13.00;69.90;;;;;;5095827;28;20036;-72
2022/03/13 10:40:29;;;;;;;14.82;8.02;;;12.60;69.30;;;;;;5095948;28;20028;-72
2022/03/13 10:42:58;;;;;;;22.13;9.48;;;12.70;72.00;;;;;;5091650;28;20066;-72
2022/03/13 10:45:38;;;;;;;20.20;9.05;;;12.70;68.50;;;;;;5095769;28;20030;-72
2022/03/13 10:48:27;;;;;;;16.05;8.27;;;12.90;69.70;;;;;;5095831;28;20020;-72
2022/03/13 10:50:54;;;;;;;24.83;8.70;;;13.20;71.50;;;;;;5095836;28;20028;-72
2022/03/13 10:53:21;;;;;;;19.23;9.32;;;13.70;70.00;;;;;;5094170;28;20051;-72
2022/03/13 10:56:20;;;;;;;14.25;8.02;;;13.80;69.30;;;;;;5095487;28;20032;-72
2022/03/13 10:58:47;;;;;;;18.60;9.18;;;13.70;66.80;;;;;;5083454;28;20451;-72
2022/03/13 11:01:16;;;;;;;18.67;8.25;;;13.90;65.10;;;;;;5095332;28;20054;-72
2022/03/13 11:04:17;;;;;;;13.60;9.15;;;13.90;66.30;;;;;;5095552;28;20035;-72
2022/03/13 11:06:43;;;;;;;17.50;9.23;;;14.10;65.50;;;;;;5090534;28;20035;-72
2022/03/13 11:09:09;;;;;;;21.52;9.68;;;14.40;67.80;;;;;;5095397;28;20520;-72
2022/03/13 11:11:35;;;;;;;15.35;8.55;;;14.40;64.60;;;;;;5095205;28;20016;-72
2022/03/13 11:14:02;;;;;;;20.80;8.68;;;14.50;65.70;;;;;;5095403;28;20024;-72
2022/03/13 11:16:30;;;;;;;16.67;9.57;;;14.60;64.90;;;;;;5095055;28;20043;-72
2022/03/13 11:19:01;;;;;;;17.45;9.25;;;14.50;65.10;;;;;;5094950;28;20031;-72
2022/03/13 11:21:27;;;;;;;18.15;9.43;;;14.50;62.40;;;;;;5095235;28;20038;-72
2022/03/13 11:23:53;;;;;;;14.82;9.35;;;14.50;64.80;;;;;;5095287;28;20016;-72
2022/03/13 11:26:24;;;;;;;14.48;8.50;;;14.50;63.40;;;;;;5095106;28;20077;-72
2022/03/13 11:28:50;;;;;;;14.50;8.52;;;14.60;63.70;;;;;;5094877;28;20091;-72
2022/03/13 11:31:37;;;;;;;17.23;8.85;;;14.60;61.30;;;;;;5094813;28;20035;-72
2022/03/13 11:34:15;;;;;;;21.65;9.40;;;14.50;61.70;;;;;;5095273;28;20484;-72
2022/03/13 11:36:49;;;;;;;20.30;10.00;;;14.60;64.10;;;;;;5095001;28;20031;-72
2022/03/13 11:39:27;;;;;;;21.83;8.48;;;14.60;60.80;;;;;;5094056;28;20066;-72
2022/03/13 11:41:54;;;;;;;14.82;8.70;;;14.80;64.30;;;;;;5094642;28;20048;-72
2022/03/13 11:44:28;;;;;;;22.88;9.27;;;15.30;65.50;;;;;;5094924;28;20016;-72
2022/03/13 11:46:55;;;;;;;14.98;8.88;;;15.30;58.40;;;;;;5094749;28;20028;-72
2022/03/13 11:49:30;;;;;;;16.63;9.40;;;15.60;61.30;;;;;;5094716;28;20024;-72
2022/03/13 11:52:13;;;;;;;15.85;8.93;;;15.80;59.80;;;;;;5094756;28;20048;-72
2022/03/13 11:54:45;;;;;;;21.63;11.10;;;16.00;59.50;;;;;;5094386;28;20488;-72
2022/03/13 11:57:15;;;;;;;17.80;9.55;;;16.20;60.50;;;;;;5094428;28;20030;-72
2022/03/13 11:59:41;;;;;;;17.65;8.88;;;16.60;59.20;;;;;;5094504;28;20042;-72
2022/03/13 12:02:10;;;;;;;25.27;10.07;;;16.70;58.30;;;;;;5094211;28;20032;-72
2022/03/13 12:04:36;;;;;;;12.75;8.43;;;16.90;58.40;;;;;;5094380;28;20432;-72
2022/03/13 12:07:06;;;;;;;17.42;8.88;;;17.30;57.50;;;;;;5094256;28;20081;-72
2022/03/13 12:09:42;;;;;;;23.80;9.85;;;17.40;54.80;;;;;;5094142;28;20023;-73
2022/03/13 12:12:14;;;;;;;19.50;8.40;;;17.40;54.90;;;;;;5094554;28;20020;-72
2022/03/13 12:14:49;;;;;;;24.15;8.55;;;17.70;54.90;;;;;;5094666;28;20087;-72
2022/03/13 12:17:15;;;;;;;16.48;9.23;;;17.60;53.70;;;;;;5095005;28;20028;-72
2022/03/13 12:19:42;;;;;;;18.85;8.90;;;17.90;54.50;;;;;;5094152;28;20529;-73
2022/03/13 12:22:07;;;;;;;22.80;9.00;;;17.90;52.80;;;;;;5094047;28;20028;-73
2022/03/13 12:24:34;;;;;;;16.40;8.57;;;18.10;52.80;;;;;;5094867;28;20027;-72
2022/03/13 12:27:04;;;;;;;19.83;9.13;;;18.10;52.50;;;;;;5098369;28;20034;-72
2022/03/13 12:29:32;;;;;;;14.20;8.88;;;18.20;53.80;;;;;;5097134;28;20051;-73
2022/03/13 12:31:59;;;;;;;18.13;9.38;;;18.90;53.80;;;;;;5098807;28;20020;-73
2022/03/13 12:34:25;;;;;;;14.88;9.05;;;19.10;50.40;;;;;;5098422;28;20527;-73
2022/03/13 12:36:53;;;;;;;16.45;9.77;;;19.20;51.50;;;;;;5098017;28;20063;-73